KCOQ

Cloquet Carlton County Airport

Cloquet, Minnesota, USA
METAR KCOQ 221515Z AUTO 00000KT 10SM OVC034 18/11 A3004 RMK AO2
Observed Flight Rules
May-22 @ 15:15 UTC (16 minutes ago) Visual Flight Rules
Visibility Clouds
10 miles
  • Overcast at 3,400' AGL
Temperatures Readings
Current 18°C / 64°F
Dewpoint 11°C / 52°F
Humidity 64%
Altimeter 30.04" Hg
Pressure 1017 hPa
Elevation 390
METAR KCOQ 221515Z AUTO 00000KT 10SM OVC034 18/11 A3004 RMK AO2
Observed Flight Rules
May-22 @ 15:15 UTC
(16 minutes ago)
VFR
Clouds
  • Overcast at 3,400' AGL
Temperature Dewpoint
18°C / 64°F 11°C / 52°F
Humidity Altimeter Pressure
64% 30.04" Hg 1017 hPa